sensor_id;sensor_type;location;lat;lon;timestamp;P1;durP1;ratioP1;P2;durP2;ratioP2
70253;SDS011;57649;42.968;1.608;2022-12-10T00:01:28;4.32;;;2.88;;
70253;SDS011;57649;42.968;1.608;2022-12-10T00:03:54;3.83;;;2.60;;
70253;SDS011;57649;42.968;1.608;2022-12-10T00:06:21;3.67;;;2.53;;
70253;SDS011;57649;42.968;1.608;2022-12-10T00:08:49;4.65;;;2.80;;
70253;SDS011;57649;42.968;1.608;2022-12-10T00:11:16;3.00;;;2.28;;
70253;SDS011;57649;42.968;1.608;2022-12-10T00:13:42;2.83;;;1.77;;
70253;SDS011;57649;42.968;1.608;2022-12-10T00:16:10;2.88;;;1.60;;
70253;SDS011;57649;42.968;1.608;2022-12-10T00:18:38;2.17;;;1.30;;
70253;SDS011;57649;42.968;1.608;2022-12-10T00:21:04;2.08;;;1.55;;
70253;SDS011;57649;42.968;1.608;2022-12-10T00:23:33;2.83;;;1.60;;
70253;SDS011;57649;42.968;1.608;2022-12-10T00:26:05;2.47;;;1.70;;
70253;SDS011;57649;42.968;1.608;2022-12-10T00:28:38;2.67;;;1.77;;
70253;SDS011;57649;42.968;1.608;2022-12-10T00:31:05;1.60;;;1.17;;
70253;SDS011;57649;42.968;1.608;2022-12-10T00:33:33;1.60;;;1.10;;
70253;SDS011;57649;42.968;1.608;2022-12-10T00:36:07;1.55;;;1.02;;
70253;SDS011;57649;42.968;1.608;2022-12-10T00:38:34;1.50;;;0.90;;
70253;SDS011;57649;42.968;1.608;2022-12-10T00:41:00;1.95;;;1.20;;
70253;SDS011;57649;42.968;1.608;2022-12-10T00:43:27;1.73;;;1.20;;
70253;SDS011;57649;42.968;1.608;2022-12-10T00:45:53;1.80;;;1.00;;
70253;SDS011;57649;42.968;1.608;2022-12-10T00:48:18;2.38;;;1.38;;
70253;SDS011;57649;42.968;1.608;2022-12-10T00:50:53;1.83;;;1.05;;
70253;SDS011;57649;42.968;1.608;2022-12-10T00:53:39;1.88;;;0.95;;
70253;SDS011;57649;42.968;1.608;2022-12-10T00:56:06;1.95;;;1.00;;
70253;SDS011;57649;42.968;1.608;2022-12-10T00:58:33;2.25;;;1.15;;
70253;SDS011;57649;42.968;1.608;2022-12-10T01:01:10;1.52;;;1.00;;
70253;SDS011;57649;42.968;1.608;2022-12-10T01:03:39;1.17;;;0.90;;
70253;SDS011;57649;42.968;1.608;2022-12-10T01:06:16;1.23;;;0.77;;
70253;SDS011;57649;42.968;1.608;2022-12-10T01:08:44;1.20;;;0.90;;
70253;SDS011;57649;42.968;1.608;2022-12-10T01:11:11;2.10;;;1.25;;
70253;SDS011;57649;42.968;1.608;2022-12-10T01:13:38;1.55;;;0.80;;
70253;SDS011;57649;42.968;1.608;2022-12-10T01:16:04;1.80;;;0.90;;
70253;SDS011;57649;42.968;1.608;2022-12-10T01:18:31;1.17;;;0.77;;
70253;SDS011;57649;42.968;1.608;2022-12-10T01:21:04;2.05;;;1.10;;
70253;SDS011;57649;42.968;1.608;2022-12-10T01:23:35;1.55;;;0.88;;
70253;SDS011;57649;42.968;1.608;2022-12-10T01:26:03;1.58;;;1.00;;
70253;SDS011;57649;42.968;1.608;2022-12-10T01:28:33;1.80;;;0.98;;
70253;SDS011;57649;42.968;1.608;2022-12-10T01:31:03;1.20;;;0.80;;
70253;SDS011;57649;42.968;1.608;2022-12-10T01:33:30;1.92;;;0.90;;
70253;SDS011;57649;42.968;1.608;2022-12-10T01:35:56;1.05;;;0.70;;
70253;SDS011;57649;42.968;1.608;2022-12-10T01:38:27;0.95;;;0.70;;
70253;SDS011;57649;42.968;1.608;2022-12-10T01:40:52;1.58;;;0.77;;
70253;SDS011;57649;42.968;1.608;2022-12-10T01:43:18;1.10;;;0.70;;
70253;SDS011;57649;42.968;1.608;2022-12-10T01:45:43;0.75;;;0.60;;
70253;SDS011;57649;42.968;1.608;2022-12-10T01:48:09;0.70;;;0.52;;
70253;SDS011;57649;42.968;1.608;2022-12-10T01:50:35;0.88;;;0.60;;
70253;SDS011;57649;42.968;1.608;2022-12-10T01:53:00;0.73;;;0.45;;
70253;SDS011;57649;42.968;1.608;2022-12-10T01:58:14;1.05;;;0.50;;
70253;SDS011;57649;42.968;1.608;2022-12-10T02:00:45;4.05;;;0.70;;
70253;SDS011;57649;42.968;1.608;2022-12-10T02:03:22;1.13;;;0.63;;
70253;SDS011;57649;42.968;1.608;2022-12-10T02:11:37;0.80;;;0.77;;
70253;SDS011;57649;42.968;1.608;2022-12-10T02:14:17;0.75;;;0.50;;
70253;SDS011;57649;42.968;1.608;2022-12-10T02:22:12;0.93;;;0.70;;
70253;SDS011;57649;42.968;1.608;2022-12-10T02:24:41;0.73;;;0.40;;
70253;SDS011;57649;42.968;1.608;2022-12-10T02:27:29;0.73;;;0.55;;
70253;SDS011;57649;42.968;1.608;2022-12-10T02:32:51;0.50;;;0.50;;
70253;SDS011;57649;42.968;1.608;2022-12-10T02:35:19;0.55;;;0.50;;
70253;SDS011;57649;42.968;1.608;2022-12-10T02:37:49;0.90;;;0.43;;
70253;SDS011;57649;42.968;1.608;2022-12-10T02:40:30;0.50;;;0.40;;
70253;SDS011;57649;42.968;1.608;2022-12-10T02:42:58;0.70;;;0.70;;
70253;SDS011;57649;42.968;1.608;2022-12-10T02:45:24;0.88;;;0.60;;
70253;SDS011;57649;42.968;1.608;2022-12-10T02:47:53;1.48;;;0.70;;
70253;SDS011;57649;42.968;1.608;2022-12-10T02:50:22;2.53;;;0.70;;
70253;SDS011;57649;42.968;1.608;2022-12-10T02:52:48;0.93;;;0.70;;
70253;SDS011;57649;42.968;1.608;2022-12-10T02:55:14;0.90;;;0.70;;
70253;SDS011;57649;42.968;1.608;2022-12-10T03:00:24;0.70;;;0.60;;
70253;SDS011;57649;42.968;1.608;2022-12-10T03:11:09;1.80;;;1.20;;
70253;SDS011;57649;42.968;1.608;2022-12-10T03:14:24;1.90;;;1.20;;
70253;SDS011;57649;42.968;1.608;2022-12-10T03:16:39;2.88;;;1.30;;
70253;SDS011;57649;42.968;1.608;2022-12-10T03:19:16;2.85;;;1.20;;
70253;SDS011;57649;42.968;1.608;2022-12-10T03:21:46;1.70;;;1.30;;
70253;SDS011;57649;42.968;1.608;2022-12-10T03:24:14;2.10;;;1.30;;
70253;SDS011;57649;42.968;1.608;2022-12-10T03:26:42;2.45;;;1.40;;
70253;SDS011;57649;42.968;1.608;2022-12-10T03:29:14;3.15;;;1.75;;
70253;SDS011;57649;42.968;1.608;2022-12-10T03:31:45;2.72;;;1.90;;
70253;SDS011;57649;42.968;1.608;2022-12-10T03:34:12;1.95;;;1.45;;
70253;SDS011;57649;42.968;1.608;2022-12-10T03:36:39;2.80;;;1.80;;
70253;SDS011;57649;42.968;1.608;2022-12-10T03:39:05;2.15;;;1.50;;
70253;SDS011;57649;42.968;1.608;2022-12-10T03:41:32;2.83;;;1.75;;
70253;SDS011;57649;42.968;1.608;2022-12-10T03:43:58;2.60;;;1.75;;
70253;SDS011;57649;42.968;1.608;2022-12-10T03:46:25;2.45;;;1.67;;
70253;SDS011;57649;42.968;1.608;2022-12-10T03:48:52;2.65;;;1.60;;
70253;SDS011;57649;42.968;1.608;2022-12-10T03:51:18;2.42;;;1.50;;
70253;SDS011;57649;42.968;1.608;2022-12-10T03:53:44;2.65;;;1.75;;
70253;SDS011;57649;42.968;1.608;2022-12-10T03:56:10;1.70;;;1.05;;
70253;SDS011;57649;42.968;1.608;2022-12-10T03:58:35;1.65;;;1.17;;
70253;SDS011;57649;42.968;1.608;2022-12-10T04:01:02;1.85;;;1.35;;
70253;SDS011;57649;42.968;1.608;2022-12-10T04:03:28;2.10;;;1.27;;
70253;SDS011;57649;42.968;1.608;2022-12-10T04:05:54;2.80;;;1.73;;
70253;SDS011;57649;42.968;1.608;2022-12-10T04:08:19;2.50;;;1.60;;
70253;SDS011;57649;42.968;1.608;2022-12-10T04:10:44;3.33;;;1.70;;
70253;SDS011;57649;42.968;1.608;2022-12-10T04:13:10;3.72;;;1.60;;
70253;SDS011;57649;42.968;1.608;2022-12-10T04:15:55;2.83;;;1.50;;
70253;SDS011;57649;42.968;1.608;2022-12-10T04:18:40;3.08;;;1.70;;
70253;SDS011;57649;42.968;1.608;2022-12-10T04:21:05;2.10;;;1.50;;
70253;SDS011;57649;42.968;1.608;2022-12-10T04:23:49;2.03;;;1.25;;
70253;SDS011;57649;42.968;1.608;2022-12-10T04:26:33;3.05;;;1.60;;
70253;SDS011;57649;42.968;1.608;2022-12-10T04:29:17;2.00;;;1.48;;
70253;SDS011;57649;42.968;1.608;2022-12-10T04:31:43;2.90;;;1.50;;
70253;SDS011;57649;42.968;1.608;2022-12-10T04:34:09;1.42;;;1.15;;
70253;SDS011;57649;42.968;1.608;2022-12-10T04:36:34;2.13;;;1.40;;
70253;SDS011;57649;42.968;1.608;2022-12-10T04:39:00;3.35;;;1.50;;
70253;SDS011;57649;42.968;1.608;2022-12-10T04:41:25;2.83;;;1.65;;
70253;SDS011;57649;42.968;1.608;2022-12-10T04:43:51;2.40;;;1.70;;
70253;SDS011;57649;42.968;1.608;2022-12-10T04:46:17;2.25;;;1.58;;
70253;SDS011;57649;42.968;1.608;2022-12-10T04:48:43;3.28;;;2.42;;
70253;SDS011;57649;42.968;1.608;2022-12-10T04:51:08;3.55;;;2.38;;
70253;SDS011;57649;42.968;1.608;2022-12-10T04:53:33;3.65;;;2.60;;
70253;SDS011;57649;42.968;1.608;2022-12-10T04:55:59;3.88;;;2.55;;
70253;SDS011;57649;42.968;1.608;2022-12-10T04:58:28;4.13;;;3.00;;
70253;SDS011;57649;42.968;1.608;2022-12-10T05:01:06;4.20;;;2.90;;
70253;SDS011;57649;42.968;1.608;2022-12-10T05:03:33;3.55;;;2.40;;
70253;SDS011;57649;42.968;1.608;2022-12-10T05:06:03;4.38;;;2.97;;
70253;SDS011;57649;42.968;1.608;2022-12-10T05:08:30;4.35;;;3.08;;
70253;SDS011;57649;42.968;1.608;2022-12-10T05:10:59;5.35;;;4.13;;
70253;SDS011;57649;42.968;1.608;2022-12-10T05:13:40;5.22;;;3.47;;
70253;SDS011;57649;42.968;1.608;2022-12-10T05:16:06;6.22;;;3.63;;
70253;SDS011;57649;42.968;1.608;2022-12-10T05:18:35;5.00;;;3.67;;
70253;SDS011;57649;42.968;1.608;2022-12-10T05:21:01;6.78;;;4.15;;
70253;SDS011;57649;42.968;1.608;2022-12-10T05:23:29;5.47;;;4.00;;
70253;SDS011;57649;42.968;1.608;2022-12-10T05:25:58;7.07;;;4.30;;
70253;SDS011;57649;42.968;1.608;2022-12-10T05:28:31;8.85;;;5.30;;
70253;SDS011;57649;42.968;1.608;2022-12-10T05:30:58;7.68;;;5.70;;
70253;SDS011;57649;42.968;1.608;2022-12-10T05:33:24;8.07;;;5.72;;
70253;SDS011;57649;42.968;1.608;2022-12-10T05:38:23;7.68;;;4.80;;
70253;SDS011;57649;42.968;1.608;2022-12-10T05:40:49;6.35;;;3.90;;
70253;SDS011;57649;42.968;1.608;2022-12-10T05:43:15;5.85;;;3.83;;
70253;SDS011;57649;42.968;1.608;2022-12-10T05:45:41;5.93;;;4.10;;
70253;SDS011;57649;42.968;1.608;2022-12-10T05:48:06;6.63;;;4.68;;
70253;SDS011;57649;42.968;1.608;2022-12-10T05:50:32;10.32;;;6.35;;
70253;SDS011;57649;42.968;1.608;2022-12-10T05:52:57;8.65;;;6.45;;
70253;SDS011;57649;42.968;1.608;2022-12-10T05:55:23;9.57;;;6.25;;
70253;SDS011;57649;42.968;1.608;2022-12-10T05:57:49;7.32;;;4.78;;
70253;SDS011;57649;42.968;1.608;2022-12-10T06:00:15;6.03;;;4.43;;
70253;SDS011;57649;42.968;1.608;2022-12-10T06:02:40;4.68;;;3.35;;
70253;SDS011;57649;42.968;1.608;2022-12-10T06:05:06;5.22;;;3.78;;
70253;SDS011;57649;42.968;1.608;2022-12-10T06:07:32;4.20;;;3.30;;
70253;SDS011;57649;42.968;1.608;2022-12-10T06:09:57;4.53;;;3.35;;
70253;SDS011;57649;42.968;1.608;2022-12-10T06:12:22;5.85;;;3.25;;
70253;SDS011;57649;42.968;1.608;2022-12-10T06:14:48;5.43;;;3.00;;
70253;SDS011;57649;42.968;1.608;2022-12-10T06:17:13;5.60;;;2.60;;
70253;SDS011;57649;42.968;1.608;2022-12-10T06:19:39;3.63;;;2.58;;
70253;SDS011;57649;42.968;1.608;2022-12-10T06:22:04;4.07;;;2.65;;
70253;SDS011;57649;42.968;1.608;2022-12-10T06:24:29;3.42;;;2.38;;
70253;SDS011;57649;42.968;1.608;2022-12-10T06:26:55;3.55;;;2.42;;
70253;SDS011;57649;42.968;1.608;2022-12-10T06:29:20;3.97;;;2.55;;
70253;SDS011;57649;42.968;1.608;2022-12-10T06:31:46;3.20;;;2.08;;
70253;SDS011;57649;42.968;1.608;2022-12-10T06:34:11;4.60;;;2.63;;
70253;SDS011;57649;42.968;1.608;2022-12-10T06:36:37;4.20;;;2.70;;
70253;SDS011;57649;42.968;1.608;2022-12-10T06:39:02;3.53;;;2.47;;
70253;SDS011;57649;42.968;1.608;2022-12-10T06:41:28;4.68;;;2.90;;
70253;SDS011;57649;42.968;1.608;2022-12-10T06:43:54;3.55;;;2.50;;
70253;SDS011;57649;42.968;1.608;2022-12-10T06:46:23;3.73;;;2.60;;
70253;SDS011;57649;42.968;1.608;2022-12-10T06:48:50;4.70;;;2.70;;
70253;SDS011;57649;42.968;1.608;2022-12-10T06:51:16;4.78;;;3.20;;
70253;SDS011;57649;42.968;1.608;2022-12-10T06:53:45;7.47;;;4.60;;
70253;SDS011;57649;42.968;1.608;2022-12-10T06:56:12;11.30;;;7.35;;
70253;SDS011;57649;42.968;1.608;2022-12-10T06:58:40;5.72;;;4.40;;
70253;SDS011;57649;42.968;1.608;2022-12-10T07:03:38;4.90;;;3.03;;
70253;SDS011;57649;42.968;1.608;2022-12-10T07:06:04;4.28;;;3.20;;
70253;SDS011;57649;42.968;1.608;2022-12-10T07:08:31;3.50;;;2.75;;
70253;SDS011;57649;42.968;1.608;2022-12-10T07:10:57;4.97;;;3.20;;
70253;SDS011;57649;42.968;1.608;2022-12-10T07:13:22;4.88;;;3.00;;
70253;SDS011;57649;42.968;1.608;2022-12-10T07:15:48;4.68;;;3.25;;
70253;SDS011;57649;42.968;1.608;2022-12-10T07:18:14;4.28;;;3.10;;
70253;SDS011;57649;42.968;1.608;2022-12-10T07:20:39;5.10;;;3.67;;
70253;SDS011;57649;42.968;1.608;2022-12-10T07:23:05;5.93;;;3.75;;
70253;SDS011;57649;42.968;1.608;2022-12-10T07:25:31;5.28;;;3.80;;
70253;SDS011;57649;42.968;1.608;2022-12-10T07:27:57;5.00;;;3.90;;
70253;SDS011;57649;42.968;1.608;2022-12-10T07:30:22;6.15;;;4.22;;
70253;SDS011;57649;42.968;1.608;2022-12-10T07:32:48;6.03;;;4.40;;
70253;SDS011;57649;42.968;1.608;2022-12-10T07:35:13;6.32;;;4.90;;
70253;SDS011;57649;42.968;1.608;2022-12-10T07:37:39;5.65;;;4.53;;
70253;SDS011;57649;42.968;1.608;2022-12-10T07:40:04;9.32;;;7.20;;
70253;SDS011;57649;42.968;1.608;2022-12-10T07:42:30;8.88;;;5.88;;
70253;SDS011;57649;42.968;1.608;2022-12-10T07:44:55;31.58;;;19.80;;
70253;SDS011;57649;42.968;1.608;2022-12-10T07:47:21;10.13;;;6.43;;
70253;SDS011;57649;42.968;1.608;2022-12-10T07:49:46;10.38;;;7.03;;
70253;SDS011;57649;42.968;1.608;2022-12-10T07:52:12;9.98;;;7.88;;
70253;SDS011;57649;42.968;1.608;2022-12-10T07:54:37;10.27;;;7.22;;
70253;SDS011;57649;42.968;1.608;2022-12-10T07:57:03;9.65;;;6.50;;
70253;SDS011;57649;42.968;1.608;2022-12-10T07:59:28;14.15;;;6.88;;
70253;SDS011;57649;42.968;1.608;2022-12-10T08:01:54;10.73;;;7.60;;
70253;SDS011;57649;42.968;1.608;2022-12-10T08:04:19;9.20;;;6.55;;
70253;SDS011;57649;42.968;1.608;2022-12-10T08:06:45;10.07;;;7.05;;
70253;SDS011;57649;42.968;1.608;2022-12-10T08:09:10;9.27;;;7.00;;
70253;SDS011;57649;42.968;1.608;2022-12-10T08:11:37;10.43;;;7.72;;
70253;SDS011;57649;42.968;1.608;2022-12-10T08:14:02;12.57;;;8.60;;
70253;SDS011;57649;42.968;1.608;2022-12-10T08:16:28;11.98;;;8.13;;
70253;SDS011;57649;42.968;1.608;2022-12-10T08:18:56;10.40;;;7.65;;
70253;SDS011;57649;42.968;1.608;2022-12-10T08:21:24;12.20;;;8.10;;
70253;SDS011;57649;42.968;1.608;2022-12-10T08:23:52;14.45;;;8.88;;
70253;SDS011;57649;42.968;1.608;2022-12-10T08:26:19;13.18;;;8.98;;
70253;SDS011;57649;42.968;1.608;2022-12-10T08:28:46;15.73;;;9.40;;
70253;SDS011;57649;42.968;1.608;2022-12-10T08:31:13;12.27;;;7.97;;
70253;SDS011;57649;42.968;1.608;2022-12-10T08:33:40;17.52;;;10.55;;
70253;SDS011;57649;42.968;1.608;2022-12-10T08:36:06;13.20;;;8.10;;
70253;SDS011;57649;42.968;1.608;2022-12-10T08:38:34;8.70;;;6.30;;
70253;SDS011;57649;42.968;1.608;2022-12-10T08:41:04;10.25;;;7.35;;
70253;SDS011;57649;42.968;1.608;2022-12-10T08:43:31;11.63;;;7.22;;
70253;SDS011;57649;42.968;1.608;2022-12-10T08:46:00;9.48;;;6.32;;
70253;SDS011;57649;42.968;1.608;2022-12-10T08:48:26;8.90;;;6.30;;
70253;SDS011;57649;42.968;1.608;2022-12-10T08:50:51;8.95;;;5.50;;
70253;SDS011;57649;42.968;1.608;2022-12-10T08:53:17;8.70;;;5.53;;
70253;SDS011;57649;42.968;1.608;2022-12-10T08:55:42;7.63;;;5.43;;
70253;SDS011;57649;42.968;1.608;2022-12-10T08:58:08;8.30;;;4.90;;
70253;SDS011;57649;42.968;1.608;2022-12-10T09:00:34;7.70;;;5.25;;
70253;SDS011;57649;42.968;1.608;2022-12-10T09:03:00;7.25;;;4.38;;
70253;SDS011;57649;42.968;1.608;2022-12-10T09:05:25;5.88;;;4.50;;
70253;SDS011;57649;42.968;1.608;2022-12-10T09:07:51;7.00;;;4.88;;
70253;SDS011;57649;42.968;1.608;2022-12-10T09:10:16;14.00;;;10.00;;
70253;SDS011;57649;42.968;1.608;2022-12-10T09:12:42;6.68;;;5.18;;
70253;SDS011;57649;42.968;1.608;2022-12-10T09:15:08;7.80;;;5.15;;
70253;SDS011;57649;42.968;1.608;2022-12-10T09:17:35;7.80;;;5.22;;
70253;SDS011;57649;42.968;1.608;2022-12-10T09:20:01;7.65;;;4.65;;
70253;SDS011;57649;42.968;1.608;2022-12-10T09:22:28;8.20;;;5.28;;
70253;SDS011;57649;42.968;1.608;2022-12-10T09:24:54;6.63;;;4.85;;
70253;SDS011;57649;42.968;1.608;2022-12-10T09:27:19;8.05;;;5.47;;
70253;SDS011;57649;42.968;1.608;2022-12-10T09:29:45;11.48;;;6.18;;
70253;SDS011;57649;42.968;1.608;2022-12-10T09:32:12;8.38;;;5.82;;
70253;SDS011;57649;42.968;1.608;2022-12-10T09:34:37;8.82;;;5.47;;
70253;SDS011;57649;42.968;1.608;2022-12-10T09:37:03;7.35;;;5.03;;
70253;SDS011;57649;42.968;1.608;2022-12-10T09:39:28;10.02;;;5.43;;
70253;SDS011;57649;42.968;1.608;2022-12-10T09:42:03;8.55;;;6.00;;
70253;SDS011;57649;42.968;1.608;2022-12-10T09:44:54;9.75;;;5.82;;
70253;SDS011;57649;42.968;1.608;2022-12-10T09:47:24;7.70;;;5.65;;
70253;SDS011;57649;42.968;1.608;2022-12-10T09:53:03;7.70;;;4.75;;
70253;SDS011;57649;42.968;1.608;2022-12-10T09:58:02;9.18;;;5.85;;
70253;SDS011;57649;42.968;1.608;2022-12-10T10:02:57;6.57;;;4.22;;
70253;SDS011;57649;42.968;1.608;2022-12-10T10:08:01;6.85;;;4.15;;
70253;SDS011;57649;42.968;1.608;2022-12-10T10:10:36;7.68;;;4.32;;
70253;SDS011;57649;42.968;1.608;2022-12-10T10:15:51;6.38;;;4.10;;
70253;SDS011;57649;42.968;1.608;2022-12-10T10:20:42;5.80;;;3.75;;
70253;SDS011;57649;42.968;1.608;2022-12-10T10:23:08;5.50;;;3.75;;
70253;SDS011;57649;42.968;1.608;2022-12-10T10:25:39;5.40;;;3.70;;
70253;SDS011;57649;42.968;1.608;2022-12-10T10:28:04;5.93;;;3.85;;
70253;SDS011;57649;42.968;1.608;2022-12-10T10:30:30;5.35;;;3.25;;
70253;SDS011;57649;42.968;1.608;2022-12-10T10:32:56;4.75;;;3.15;;
70253;SDS011;57649;42.968;1.608;2022-12-10T10:35:30;6.40;;;3.92;;
70253;SDS011;57649;42.968;1.608;2022-12-10T10:37:59;5.25;;;3.50;;
70253;SDS011;57649;42.968;1.608;2022-12-10T10:42:55;7.82;;;3.80;;
70253;SDS011;57649;42.968;1.608;2022-12-10T10:45:39;4.95;;;3.15;;
70253;SDS011;57649;42.968;1.608;2022-12-10T10:48:11;5.82;;;3.40;;
70253;SDS011;57649;42.968;1.608;2022-12-10T10:50:40;5.18;;;3.30;;
70253;SDS011;57649;42.968;1.608;2022-12-10T10:53:20;5.57;;;3.53;;
70253;SDS011;57649;42.968;1.608;2022-12-10T10:56:16;5.97;;;2.90;;
70253;SDS011;57649;42.968;1.608;2022-12-10T11:01:24;5.60;;;3.53;;
70253;SDS011;57649;42.968;1.608;2022-12-10T11:03:55;8.20;;;3.40;;
70253;SDS011;57649;42.968;1.608;2022-12-10T11:06:23;4.90;;;3.22;;
70253;SDS011;57649;42.968;1.608;2022-12-10T11:08:50;6.03;;;3.42;;
70253;SDS011;57649;42.968;1.608;2022-12-10T11:11:20;6.00;;;3.22;;
70253;SDS011;57649;42.968;1.608;2022-12-10T11:13:50;4.47;;;3.30;;
70253;SDS011;57649;42.968;1.608;2022-12-10T11:16:20;4.43;;;3.10;;
70253;SDS011;57649;42.968;1.608;2022-12-10T11:18:56;6.03;;;3.53;;
70253;SDS011;57649;42.968;1.608;2022-12-10T11:21:29;5.68;;;2.95;;
70253;SDS011;57649;42.968;1.608;2022-12-10T11:23:59;5.50;;;3.22;;
70253;SDS011;57649;42.968;1.608;2022-12-10T11:41:24;7.05;;;4.35;;
70253;SDS011;57649;42.968;1.608;2022-12-10T11:46:36;6.88;;;3.95;;
70253;SDS011;57649;42.968;1.608;2022-12-10T11:49:35;12.88;;;11.57;;
70253;SDS011;57649;42.968;1.608;2022-12-10T11:55:04;5.43;;;3.33;;
70253;SDS011;57649;42.968;1.608;2022-12-10T11:57:47;4.47;;;3.15;;
70253;SDS011;57649;42.968;1.608;2022-12-10T12:00:25;5.75;;;3.35;;
70253;SDS011;57649;42.968;1.608;2022-12-10T12:14:54;4.75;;;3.20;;
70253;SDS011;57649;42.968;1.608;2022-12-10T12:17:34;5.15;;;3.08;;
70253;SDS011;57649;42.968;1.608;2022-12-10T12:25:52;3.97;;;2.90;;
70253;SDS011;57649;42.968;1.608;2022-12-10T12:31:13;4.32;;;2.83;;
70253;SDS011;57649;42.968;1.608;2022-12-10T12:34:03;4.13;;;2.78;;
70253;SDS011;57649;42.968;1.608;2022-12-10T12:36:43;4.88;;;2.78;;
70253;SDS011;57649;42.968;1.608;2022-12-10T12:45:08;3.63;;;2.97;;
70253;SDS011;57649;42.968;1.608;2022-12-10T12:50:49;4.38;;;2.83;;
70253;SDS011;57649;42.968;1.608;2022-12-10T12:53:38;4.47;;;3.17;;
70253;SDS011;57649;42.968;1.608;2022-12-10T13:02:00;7.97;;;3.70;;
70253;SDS011;57649;42.968;1.608;2022-12-10T13:04:36;4.90;;;3.70;;
70253;SDS011;57649;42.968;1.608;2022-12-10T13:07:35;5.95;;;3.78;;
70253;SDS011;57649;42.968;1.608;2022-12-10T13:12:46;4.88;;;3.25;;
70253;SDS011;57649;42.968;1.608;2022-12-10T13:15:21;7.72;;;3.67;;
70253;SDS011;57649;42.968;1.608;2022-12-10T13:18:36;5.05;;;3.20;;
70253;SDS011;57649;42.968;1.608;2022-12-10T13:23:50;7.38;;;4.70;;
70253;SDS011;57649;42.968;1.608;2022-12-10T13:26:23;5.18;;;3.17;;
70253;SDS011;57649;42.968;1.608;2022-12-10T13:28:52;4.90;;;3.30;;
70253;SDS011;57649;42.968;1.608;2022-12-10T13:31:21;4.53;;;3.10;;
70253;SDS011;57649;42.968;1.608;2022-12-10T13:42:20;4.45;;;3.00;;
70253;SDS011;57649;42.968;1.608;2022-12-10T13:50:17;5.30;;;2.85;;
70253;SDS011;57649;42.968;1.608;2022-12-10T13:55:48;5.07;;;2.53;;
70253;SDS011;57649;42.968;1.608;2022-12-10T13:58:26;4.10;;;3.03;;
70253;SDS011;57649;42.968;1.608;2022-12-10T14:01:38;4.80;;;2.80;;
70253;SDS011;57649;42.968;1.608;2022-12-10T14:06:52;7.32;;;3.72;;
70253;SDS011;57649;42.968;1.608;2022-12-10T14:09:29;5.25;;;3.10;;
70253;SDS011;57649;42.968;1.608;2022-12-10T14:12:10;4.07;;;2.72;;
70253;SDS011;57649;42.968;1.608;2022-12-10T14:14:59;5.43;;;3.30;;
70253;SDS011;57649;42.968;1.608;2022-12-10T14:17:34;6.30;;;2.85;;
70253;SDS011;57649;42.968;1.608;2022-12-10T14:20:04;5.68;;;3.38;;
70253;SDS011;57649;42.968;1.608;2022-12-10T14:22:33;3.38;;;2.53;;
70253;SDS011;57649;42.968;1.608;2022-12-10T14:25:04;5.10;;;2.58;;
70253;SDS011;57649;42.968;1.608;2022-12-10T14:27:36;5.30;;;2.85;;
70253;SDS011;57649;42.968;1.608;2022-12-10T14:30:06;4.40;;;2.50;;
70253;SDS011;57649;42.968;1.608;2022-12-10T14:32:39;3.15;;;2.22;;
70253;SDS011;57649;42.968;1.608;2022-12-10T14:35:06;3.33;;;2.47;;
70253;SDS011;57649;42.968;1.608;2022-12-10T14:37:37;4.75;;;2.90;;
70253;SDS011;57649;42.968;1.608;2022-12-10T14:40:07;4.68;;;3.50;;
70253;SDS011;57649;42.968;1.608;2022-12-10T14:42:34;3.55;;;2.38;;
70253;SDS011;57649;42.968;1.608;2022-12-10T14:45:03;6.03;;;3.17;;
70253;SDS011;57649;42.968;1.608;2022-12-10T14:47:37;4.28;;;3.00;;
70253;SDS011;57649;42.968;1.608;2022-12-10T14:50:04;4.28;;;2.38;;
70253;SDS011;57649;42.968;1.608;2022-12-10T14:52:39;5.88;;;4.15;;
70253;SDS011;57649;42.968;1.608;2022-12-10T14:55:18;5.55;;;2.97;;
70253;SDS011;57649;42.968;1.608;2022-12-10T14:57:59;3.45;;;2.45;;
70253;SDS011;57649;42.968;1.608;2022-12-10T15:00:28;4.13;;;2.55;;
70253;SDS011;57649;42.968;1.608;2022-12-10T15:05:22;4.97;;;2.50;;
70253;SDS011;57649;42.968;1.608;2022-12-10T15:10:25;5.82;;;2.80;;
70253;SDS011;57649;42.968;1.608;2022-12-10T15:12:54;5.35;;;2.88;;
70253;SDS011;57649;42.968;1.608;2022-12-10T15:15:31;5.05;;;2.90;;
70253;SDS011;57649;42.968;1.608;2022-12-10T15:29:14;3.75;;;2.60;;
70253;SDS011;57649;42.968;1.608;2022-12-10T15:31:47;7.25;;;4.35;;
70253;SDS011;57649;42.968;1.608;2022-12-10T15:34:17;4.15;;;2.58;;
70253;SDS011;57649;42.968;1.608;2022-12-10T15:36:49;5.30;;;3.20;;
70253;SDS011;57649;42.968;1.608;2022-12-10T15:39:20;6.43;;;3.10;;
70253;SDS011;57649;42.968;1.608;2022-12-10T15:44:32;6.30;;;3.20;;
70253;SDS011;57649;42.968;1.608;2022-12-10T15:49:52;4.57;;;3.38;;
70253;SDS011;57649;42.968;1.608;2022-12-10T15:52:26;5.53;;;3.03;;
70253;SDS011;57649;42.968;1.608;2022-12-10T15:54:54;6.05;;;3.25;;
70253;SDS011;57649;42.968;1.608;2022-12-10T15:59:55;6.15;;;3.90;;
70253;SDS011;57649;42.968;1.608;2022-12-10T16:02:33;6.10;;;2.90;;
70253;SDS011;57649;42.968;1.608;2022-12-10T16:07:46;5.03;;;3.42;;
70253;SDS011;57649;42.968;1.608;2022-12-10T16:10:14;7.18;;;3.30;;
70253;SDS011;57649;42.968;1.608;2022-12-10T16:12:42;6.85;;;4.32;;
70253;SDS011;57649;42.968;1.608;2022-12-10T16:15:23;6.35;;;3.95;;
70253;SDS011;57649;42.968;1.608;2022-12-10T16:17:51;8.32;;;3.88;;
70253;SDS011;57649;42.968;1.608;2022-12-10T16:22:44;7.40;;;4.63;;
70253;SDS011;57649;42.968;1.608;2022-12-10T16:25:10;7.68;;;3.33;;
70253;SDS011;57649;42.968;1.608;2022-12-10T16:27:36;8.45;;;4.63;;
70253;SDS011;57649;42.968;1.608;2022-12-10T16:30:25;6.45;;;3.90;;
70253;SDS011;57649;42.968;1.608;2022-12-10T16:32:57;6.57;;;3.85;;
70253;SDS011;57649;42.968;1.608;2022-12-10T16:35:23;5.05;;;3.20;;
70253;SDS011;57649;42.968;1.608;2022-12-10T16:37:49;8.82;;;3.42;;
70253;SDS011;57649;42.968;1.608;2022-12-10T16:40:20;7.97;;;4.97;;
70253;SDS011;57649;42.968;1.608;2022-12-10T16:42:47;5.30;;;3.67;;
70253;SDS011;57649;42.968;1.608;2022-12-10T16:45:19;7.50;;;4.18;;
70253;SDS011;57649;42.968;1.608;2022-12-10T16:47:49;7.90;;;4.10;;
70253;SDS011;57649;42.968;1.608;2022-12-10T16:50:15;7.93;;;4.05;;
70253;SDS011;57649;42.968;1.608;2022-12-10T16:52:42;5.40;;;3.60;;
70253;SDS011;57649;42.968;1.608;2022-12-10T16:55:15;5.65;;;3.20;;
70253;SDS011;57649;42.968;1.608;2022-12-10T16:57:43;4.72;;;3.28;;
70253;SDS011;57649;42.968;1.608;2022-12-10T17:00:11;4.93;;;2.97;;
70253;SDS011;57649;42.968;1.608;2022-12-10T17:02:38;5.43;;;4.18;;
70253;SDS011;57649;42.968;1.608;2022-12-10T17:05:05;9.15;;;5.90;;
70253;SDS011;57649;42.968;1.608;2022-12-10T17:07:38;6.70;;;4.78;;
70253;SDS011;57649;42.968;1.608;2022-12-10T17:10:03;5.07;;;3.33;;
70253;SDS011;57649;42.968;1.608;2022-12-10T17:12:29;8.70;;;5.40;;
70253;SDS011;57649;42.968;1.608;2022-12-10T17:14:55;8.82;;;4.55;;
70253;SDS011;57649;42.968;1.608;2022-12-10T17:17:21;10.00;;;6.35;;
70253;SDS011;57649;42.968;1.608;2022-12-10T17:19:46;9.27;;;6.88;;
70253;SDS011;57649;42.968;1.608;2022-12-10T17:22:12;10.07;;;7.03;;
70253;SDS011;57649;42.968;1.608;2022-12-10T17:24:38;7.75;;;5.97;;
70253;SDS011;57649;42.968;1.608;2022-12-10T17:27:14;14.38;;;8.07;;
70253;SDS011;57649;42.968;1.608;2022-12-10T17:29:42;13.40;;;8.60;;
70253;SDS011;57649;42.968;1.608;2022-12-10T17:32:18;13.70;;;8.35;;
70253;SDS011;57649;42.968;1.608;2022-12-10T17:34:45;11.98;;;7.45;;
70253;SDS011;57649;42.968;1.608;2022-12-10T17:37:12;14.32;;;10.00;;
70253;SDS011;57649;42.968;1.608;2022-12-10T17:39:39;10.40;;;6.95;;
70253;SDS011;57649;42.968;1.608;2022-12-10T17:42:05;12.65;;;9.70;;
70253;SDS011;57649;42.968;1.608;2022-12-10T17:44:33;6.20;;;3.58;;